createdAt,value
2023-01-12T00:02:27.270Z,69.95
2023-01-12T00:04:55.678Z,70.32
2023-01-12T00:07:23.983Z,70.66
2023-01-12T00:09:52.359Z,70.42
2023-01-12T00:12:20.701Z,70.46
2023-01-12T00:14:49.044Z,70.87
2023-01-12T00:17:19.745Z,70.24
2023-01-12T00:19:48.177Z,70.72
2023-01-12T00:22:18.668Z,71.24
2023-01-12T00:24:49.892Z,71.04
2023-01-12T00:27:20.335Z,71.15
2023-01-12T00:29:49.271Z,71.43
2023-01-12T00:32:21.368Z,70.57
2023-01-12T00:34:49.825Z,71.24
2023-01-12T00:37:20.722Z,70.77
2023-01-12T00:40:01.553Z,70.95
2023-01-12T00:42:48.225Z,70.81
2023-01-12T00:45:22.848Z,72.02
2023-01-12T00:47:53.534Z,71.26
2023-01-12T00:50:21.961Z,71.05
2023-01-12T00:52:50.301Z,70.86
2023-01-12T00:55:18.687Z,70.93
2023-01-12T00:57:47.052Z,71.35
2023-01-12T01:00:16.238Z,71.19
2023-01-12T01:02:44.631Z,71.71
2023-01-12T01:05:14.469Z,71.11
2023-01-12T01:07:42.814Z,71.79
2023-01-12T01:10:12.497Z,72.01
2023-01-12T01:12:40.942Z,72.11
2023-01-12T01:15:10.225Z,71.87
2023-01-12T01:17:38.603Z,71.95
2023-01-12T01:20:07.607Z,71.94
2023-01-12T01:22:37.375Z,72.18
2023-01-12T01:25:06.538Z,72.30
2023-01-12T01:27:34.898Z,72.28
2023-01-12T01:30:03.430Z,71.87
2023-01-12T01:32:31.916Z,72.24
2023-01-12T01:35:00.259Z,72.11
2023-01-12T01:37:29.845Z,72.25
2023-01-12T01:39:59.505Z,73.24
2023-01-12T01:42:30.697Z,72.54
2023-01-12T01:45:07.674Z,72.32
2023-01-12T01:47:40.542Z,72.18
2023-01-12T01:50:16.523Z,71.52
2023-01-12T01:52:48.211Z,71.54
2023-01-12T01:55:22.092Z,72.38
2023-01-12T01:57:56.274Z,71.59
2023-01-12T02:00:26.579Z,72.59
2023-01-12T02:02:56.050Z,72.52
2023-01-12T02:05:27.671Z,72.58
2023-01-12T02:08:01.549Z,72.02
2023-01-12T02:10:31.399Z,72.91
2023-01-12T02:13:17.783Z,72.65
2023-01-12T02:16:21.711Z,72.93
2023-01-12T02:19:09.039Z,73.06
2023-01-12T02:22:08.583Z,73.27
2023-01-12T02:24:58.060Z,73.02
2023-01-12T02:27:43.787Z,72.57
2023-01-12T02:30:48.416Z,72.79
2023-01-12T02:33:31.438Z,73.58
2023-01-12T02:36:07.808Z,73.56
2023-01-12T02:38:41.664Z,72.97
2023-01-12T02:41:40.533Z,73.10
2023-01-12T02:44:13.750Z,72.75
2023-01-12T02:46:47.283Z,72.73
2023-01-12T02:49:22.430Z,72.09
2023-01-12T02:51:55.334Z,72.85
2023-01-12T02:54:26.445Z,72.08
2023-01-12T02:56:57.591Z,72.69
2023-01-12T02:59:29.280Z,72.71
2023-01-12T03:02:02.585Z,72.35
2023-01-12T03:04:34.262Z,72.59
2023-01-12T03:07:33.260Z,72.33
2023-01-12T03:10:14.847Z,72.51
2023-01-12T03:12:44.956Z,72.97
2023-01-12T03:15:17.226Z,72.31
2023-01-12T03:17:51.688Z,71.97
2023-01-12T03:20:26.082Z,72.48
2023-01-12T03:22:59.209Z,71.89
2023-01-12T03:25:29.809Z,72.79
2023-01-12T03:28:01.433Z,72.66
2023-01-12T03:30:35.122Z,72.48
2023-01-12T03:33:04.076Z,72.81
2023-01-12T03:35:38.607Z,73.13
2023-01-12T03:38:17.492Z,73.43
2023-01-12T03:40:50.540Z,73.71
2023-01-12T03:43:24.352Z,73.51
2023-01-12T03:45:58.833Z,72.48
2023-01-12T03:48:32.575Z,73.40
2023-01-12T03:51:08.257Z,73.51
2023-01-12T03:53:37.452Z,73.74
2023-01-12T03:56:09.405Z,73.42
2023-01-12T03:58:38.840Z,73.46
2023-01-12T04:01:07.575Z,73.04
2023-01-12T04:03:36.169Z,73.01
2023-01-12T04:06:08.384Z,72.47
2023-01-12T04:08:37.139Z,72.56
2023-01-12T04:11:25.957Z,71.95
2023-01-12T04:13:53.363Z,72.60
2023-01-12T04:16:21.835Z,72.02
2023-01-12T04:18:50.157Z,72.00
2023-01-12T04:21:39.883Z,72.60
2023-01-12T04:24:08.529Z,72.75
2023-01-12T04:26:36.827Z,72.78
2023-01-12T04:29:05.418Z,72.63
2023-01-12T04:31:33.890Z,72.94
2023-01-12T04:34:02.424Z,73.03
2023-01-12T04:36:32.121Z,72.51
2023-01-12T04:39:00.937Z,72.83
2023-01-12T04:41:29.283Z,73.74
2023-01-12T04:43:58.629Z,73.40
2023-01-12T04:46:27.153Z,73.67
2023-01-12T04:48:55.518Z,73.81
2023-01-12T04:51:23.919Z,73.74
2023-01-12T04:53:53.695Z,74.19
2023-01-12T04:56:22.125Z,73.66
2023-01-12T04:58:50.457Z,74.04
2023-01-12T05:02:09.542Z,74.33
2023-01-12T05:04:38.005Z,74.62
2023-01-12T05:07:06.364Z,74.33
2023-01-12T05:09:53.317Z,74.05
2023-01-12T05:12:21.683Z,73.91
2023-01-12T05:14:50.718Z,74.38
2023-01-12T05:17:19.015Z,73.89
2023-01-12T05:19:48.752Z,73.67
2023-01-12T05:22:17.327Z,74.36
2023-01-12T05:24:47.059Z,73.60
2023-01-12T05:27:15.433Z,74.34
2023-01-12T05:29:43.749Z,74.40
2023-01-12T05:32:12.176Z,73.91
2023-01-12T05:34:40.534Z,73.20
2023-01-12T05:37:08.913Z,73.60
2023-01-12T05:39:37.257Z,72.64
2023-01-12T05:42:24.828Z,73.95
2023-01-12T05:44:53.203Z,73.54
2023-01-12T05:47:21.542Z,74.21
2023-01-12T05:49:49.928Z,74.37
2023-01-12T05:52:18.209Z,74.22
2023-01-12T05:54:46.641Z,74.47
2023-01-12T05:57:16.284Z,73.49
2023-01-12T05:59:44.706Z,73.06
2023-01-12T06:02:17.257Z,73.55
2023-01-12T06:04:45.734Z,73.78
2023-01-12T06:07:15.234Z,73.31
2023-01-12T06:09:43.937Z,73.74
2023-01-12T06:12:30.811Z,73.58
2023-01-12T06:15:00.659Z,73.09
2023-01-12T06:17:28.979Z,72.93
2023-01-12T06:19:57.290Z,73.22
2023-01-12T06:22:27.230Z,72.34
2023-01-12T06:24:55.540Z,72.88
2023-01-12T06:27:23.918Z,72.17
2023-01-12T06:29:52.402Z,72.92
2023-01-12T06:32:22.144Z,73.68
2023-01-12T06:34:50.431Z,73.75
2023-01-12T06:37:18.767Z,73.62
2023-01-12T06:39:47.114Z,73.93
2023-01-12T06:42:31.873Z,73.44
2023-01-12T06:45:03.870Z,74.19
2023-01-12T06:47:33.795Z,74.06
2023-01-12T06:50:02.214Z,74.00
2023-01-12T06:52:39.693Z,73.70
2023-01-12T06:55:09.564Z,73.63
2023-01-12T06:57:37.907Z,73.42
2023-01-12T07:00:07.879Z,73.61
2023-01-12T07:02:37.573Z,73.38
2023-01-12T07:05:10.611Z,73.82
2023-01-12T07:07:40.396Z,73.71
2023-01-12T07:10:09.780Z,73.25
2023-01-12T07:12:38.127Z,73.08
2023-01-12T07:15:07.323Z,73.31
2023-01-12T07:17:37.159Z,73.58
2023-01-12T07:20:06.208Z,73.61
2023-01-12T07:22:34.657Z,73.92
2023-01-12T07:25:02.975Z,74.63
2023-01-12T07:27:31.367Z,73.72
2023-01-12T07:29:59.677Z,74.36
2023-01-12T07:32:29.976Z,74.47
2023-01-12T07:34:59.867Z,74.28
2023-01-12T07:37:28.263Z,74.55
2023-01-12T07:39:58.958Z,74.54
2023-01-12T07:42:27.573Z,74.76
2023-01-12T07:44:55.917Z,74.66
2023-01-12T07:47:24.287Z,75.00
2023-01-12T07:49:52.638Z,75.37
2023-01-12T07:52:22.379Z,74.56
2023-01-12T07:54:50.770Z,75.83
2023-01-12T07:57:19.061Z,75.65
2023-01-12T07:59:47.387Z,75.16
2023-01-12T08:02:17.118Z,75.46
2023-01-12T08:04:46.083Z,75.87
2023-01-12T08:07:15.259Z,76.46
2023-01-12T08:09:44.996Z,76.58
2023-01-12T08:12:14.608Z,76.84
2023-01-12T08:14:43.361Z,76.31
2023-01-12T08:17:16.963Z,74.72
2023-01-12T08:19:49.560Z,74.45
2023-01-12T08:22:23.312Z,74.34
2023-01-12T08:24:57.592Z,73.80
2023-01-12T08:27:30.446Z,73.98
2023-01-12T08:30:00.130Z,73.78
2023-01-12T08:32:30.231Z,73.33
2023-01-12T08:35:01.870Z,73.81
2023-01-12T08:37:32.054Z,74.41
2023-01-12T08:40:02.279Z,74.45
2023-01-12T08:42:31.960Z,74.61
2023-01-12T08:45:00.467Z,74.84
2023-01-12T08:47:30.761Z,74.14
2023-01-12T08:50:00.636Z,74.19
2023-01-12T08:52:32.655Z,73.87
2023-01-12T08:55:02.455Z,72.79
2023-01-12T08:57:30.825Z,72.63
2023-01-12T08:59:59.206Z,72.91
2023-01-12T09:02:27.986Z,72.65
2023-01-12T09:04:56.323Z,72.29
2023-01-12T09:07:24.587Z,72.31
2023-01-12T09:09:53.937Z,72.36
2023-01-12T09:12:24.545Z,72.52
2023-01-12T09:14:54.192Z,72.05
2023-01-12T09:17:24.219Z,72.61
2023-01-12T09:19:52.507Z,72.33
2023-01-12T09:22:20.945Z,72.36
2023-01-12T09:24:49.347Z,72.71
2023-01-12T09:27:18.624Z,72.46
2023-01-12T09:29:48.406Z,72.23
2023-01-12T09:32:18.549Z,72.63
2023-01-12T09:34:55.054Z,72.72
2023-01-12T09:37:23.385Z,72.54
2023-01-12T09:39:51.753Z,72.75
2023-01-12T09:42:40.837Z,72.82
2023-01-12T09:45:37.661Z,72.53
2023-01-12T09:48:08.008Z,72.56
2023-01-12T09:50:38.261Z,72.80
2023-01-12T09:53:13.097Z,73.99
2023-01-12T09:55:48.816Z,73.04
2023-01-12T09:58:27.719Z,73.39
2023-01-12T10:00:59.620Z,73.48
2023-01-12T10:03:32.251Z,73.65
2023-01-12T10:06:01.802Z,73.72
2023-01-12T10:08:34.069Z,73.80
2023-01-12T10:11:13.098Z,73.67
2023-01-12T10:14:12.347Z,72.40
2023-01-12T10:16:52.438Z,72.61
2023-01-12T10:19:27.116Z,71.30
2023-01-12T10:21:55.820Z,70.65
2023-01-12T10:24:25.921Z,69.56
2023-01-12T10:27:01.457Z,68.75
2023-01-12T10:29:31.868Z,67.60
2023-01-12T10:32:01.634Z,66.62
2023-01-12T10:34:48.987Z,65.83
2023-01-12T10:37:17.650Z,65.28
2023-01-12T10:39:46.347Z,64.18
2023-01-12T10:42:39.396Z,63.65
2023-01-12T10:45:16.220Z,63.33
2023-01-12T10:47:47.221Z,62.85
2023-01-12T10:50:28.062Z,63.13
2023-01-12T10:53:00.795Z,63.37
2023-01-12T10:55:33.515Z,61.78
2023-01-12T10:58:02.954Z,61.08
2023-01-12T11:00:31.785Z,61.89
2023-01-12T11:03:01.911Z,63.16
2023-01-12T11:05:36.840Z,64.01
2023-01-12T11:08:05.656Z,64.65
2023-01-12T11:10:37.533Z,63.74
2023-01-12T11:13:09.104Z,64.13
2023-01-12T11:15:40.142Z,63.67
2023-01-12T11:18:32.178Z,64.29
2023-01-12T11:21:04.365Z,63.61
2023-01-12T11:23:38.011Z,59.14
2023-01-12T11:26:17.021Z,57.12
2023-01-12T11:28:49.228Z,56.41
2023-01-12T11:31:24.049Z,55.41
2023-01-12T11:33:59.760Z,56.52
2023-01-12T11:36:31.450Z,56.63
2023-01-12T11:39:05.879Z,57.11
2023-01-12T11:41:39.360Z,57.94
2023-01-12T11:44:16.040Z,57.88
2023-01-12T11:46:48.235Z,58.13
2023-01-12T11:49:24.289Z,57.29
2023-01-12T11:51:57.058Z,56.98
2023-01-12T11:54:27.217Z,57.18
2023-01-12T11:57:18.698Z,57.01
2023-01-12T11:59:57.130Z,57.64
2023-01-12T12:02:37.191Z,57.80
2023-01-12T12:05:29.871Z,57.66
2023-01-12T12:08:14.385Z,56.72
2023-01-12T12:10:49.137Z,55.97
2023-01-12T12:13:48.981Z,56.09
2023-01-12T12:16:28.757Z,56.08
2023-01-12T12:19:20.195Z,55.33
2023-01-12T12:21:52.162Z,55.65
2023-01-12T12:24:32.524Z,55.56
2023-01-12T12:27:13.114Z,55.74
2023-01-12T12:30:04.411Z,55.33
2023-01-12T12:32:41.462Z,55.64
2023-01-12T12:35:41.514Z,55.57
2023-01-12T12:38:26.439Z,55.94
2023-01-12T12:41:29.396Z,55.94
2023-01-12T12:44:28.534Z,55.23
2023-01-12T12:47:07.215Z,54.77
2023-01-12T12:49:38.608Z,54.55
2023-01-12T12:52:09.121Z,53.68
2023-01-12T12:54:39.209Z,53.38
2023-01-12T12:57:07.578Z,52.44
2023-01-12T12:59:57.160Z,52.24
2023-01-12T13:02:38.877Z,51.92
2023-01-12T13:05:09.749Z,50.80
2023-01-12T13:07:45.459Z,51.26
2023-01-12T13:10:33.377Z,52.16
2023-01-12T13:13:24.496Z,52.14
2023-01-12T13:16:45.752Z,52.33
2023-01-12T13:19:37.765Z,52.30
2023-01-12T13:22:29.512Z,52.65
2023-01-12T13:25:02.533Z,52.59
2023-01-12T13:27:54.266Z,52.79
2023-01-12T13:30:26.235Z,52.78
2023-01-12T13:33:01.969Z,52.91
2023-01-12T13:36:11.501Z,52.74
2023-01-12T13:39:04.968Z,53.09
2023-01-12T13:41:53.603Z,53.11
2023-01-12T13:44:27.078Z,54.00
2023-01-12T13:47:04.459Z,54.77
2023-01-12T13:49:34.373Z,55.94
2023-01-12T13:52:06.594Z,56.78
2023-01-12T13:54:36.150Z,57.55
2023-01-12T13:57:10.814Z,57.52
2023-01-12T13:59:39.118Z,57.73
2023-01-12T14:02:19.494Z,57.85
2023-01-12T14:05:07.640Z,58.49
2023-01-12T14:07:55.243Z,58.46
2023-01-12T14:10:37.417Z,57.71
2023-01-12T14:13:27.179Z,57.90
2023-01-12T14:16:19.599Z,58.00
2023-01-12T14:18:50.824Z,58.28
2023-01-12T14:21:24.736Z,57.92
2023-01-12T14:23:55.480Z,58.53
2023-01-12T14:26:27.301Z,59.05
2023-01-12T14:28:55.725Z,58.53
2023-01-12T14:31:28.480Z,59.02
2023-01-12T14:33:59.564Z,58.75
2023-01-12T14:36:30.603Z,58.21
2023-01-12T14:39:01.608Z,57.25
2023-01-12T14:41:48.896Z,56.08
2023-01-12T14:44:37.896Z,55.50
2023-01-12T14:47:06.985Z,54.49
2023-01-12T14:49:37.721Z,53.82
2023-01-12T14:52:27.681Z,53.61
2023-01-12T14:55:14.662Z,54.02
2023-01-12T14:57:43.951Z,54.16
2023-01-12T15:00:22.313Z,54.79
2023-01-12T15:02:52.466Z,54.76
2023-01-12T15:05:25.572Z,54.80
2023-01-12T15:07:56.466Z,55.63
2023-01-12T15:10:32.297Z,56.19
2023-01-12T15:13:19.985Z,55.97
2023-01-12T15:16:06.235Z,56.39
2023-01-12T15:18:53.979Z,56.35
2023-01-12T15:21:40.208Z,56.04
2023-01-12T15:24:39.274Z,55.84
2023-01-12T15:27:09.975Z,56.45
2023-01-12T15:29:38.628Z,57.16
2023-01-12T15:32:15.363Z,57.00
2023-01-12T15:34:44.002Z,58.08
2023-01-12T15:37:16.253Z,58.57
2023-01-12T15:39:44.588Z,58.97
2023-01-12T15:42:17.871Z,59.33
2023-01-12T15:44:47.233Z,59.39
2023-01-12T15:47:17.681Z,59.83
2023-01-12T15:49:48.923Z,60.22
2023-01-12T15:52:20.128Z,60.87
2023-01-12T15:54:48.601Z,60.75
2023-01-12T15:57:19.080Z,60.92
2023-01-12T15:59:47.513Z,61.17
2023-01-12T16:02:31.419Z,61.25
2023-01-12T16:05:00.077Z,61.97
2023-01-12T16:07:28.509Z,62.35
2023-01-12T16:09:57.931Z,62.17
2023-01-12T16:12:27.687Z,62.49
2023-01-12T16:14:56.707Z,63.29
2023-01-12T16:17:25.190Z,63.66
2023-01-12T16:19:53.529Z,63.81
2023-01-12T16:22:25.241Z,63.91
2023-01-12T16:24:55.389Z,64.26
2023-01-12T16:27:25.199Z,64.19
2023-01-12T16:29:55.142Z,64.53
2023-01-12T16:32:25.190Z,64.57
2023-01-12T16:34:54.258Z,64.76
2023-01-12T16:37:27.458Z,65.06
2023-01-12T16:39:56.193Z,64.74
2023-01-12T16:42:24.581Z,65.11
2023-01-12T16:44:54.553Z,65.11
2023-01-12T16:47:24.522Z,64.82
2023-01-12T16:49:53.269Z,65.66
2023-01-12T16:52:23.228Z,65.24
2023-01-12T16:54:51.582Z,65.58
2023-01-12T16:57:20.281Z,66.02
2023-01-12T16:59:50.851Z,65.81
2023-01-12T17:02:21.508Z,66.12
2023-01-12T17:04:52.461Z,65.94
2023-01-12T17:07:20.993Z,66.41
2023-01-12T17:09:49.467Z,66.83
2023-01-12T17:12:17.982Z,66.73
2023-01-12T17:14:46.659Z,67.13
2023-01-12T17:17:15.333Z,66.67
2023-01-12T17:19:46.477Z,67.18
2023-01-12T17:22:15.115Z,66.86
2023-01-12T17:24:43.496Z,66.99
2023-01-12T17:27:12.438Z,67.72
2023-01-12T17:29:40.820Z,67.63
2023-01-12T17:32:09.794Z,67.80
2023-01-12T17:34:40.347Z,67.70
2023-01-12T17:37:11.424Z,68.28
2023-01-12T17:39:43.051Z,67.90
2023-01-12T17:42:30.437Z,67.40
2023-01-12T17:44:59.202Z,67.91
2023-01-12T17:47:27.594Z,68.42
2023-01-12T17:49:56.137Z,68.59
2023-01-12T17:52:26.299Z,68.89
2023-01-12T17:54:54.762Z,68.11
2023-01-12T17:57:23.219Z,68.58
2023-01-12T17:59:51.990Z,67.77
2023-01-12T18:02:20.346Z,68.31
2023-01-12T18:04:48.781Z,69.30
2023-01-12T18:07:17.037Z,68.64
2023-01-12T18:09:46.783Z,68.41
2023-01-12T18:12:16.514Z,68.06
2023-01-12T18:14:44.992Z,68.89
2023-01-12T18:17:13.568Z,69.21
2023-01-12T18:19:42.584Z,70.09
2023-01-12T18:22:11.279Z,69.55
2023-01-12T18:24:39.643Z,70.08
2023-01-12T18:27:09.735Z,69.69
2023-01-12T18:29:38.256Z,69.33
2023-01-12T18:32:11.713Z,69.73
2023-01-12T18:34:40.451Z,69.59
2023-01-12T18:37:08.713Z,70.19
2023-01-12T18:39:37.129Z,69.65
2023-01-12T18:42:23.398Z,70.40
2023-01-12T18:44:53.204Z,70.60
2023-01-12T18:47:39.112Z,69.75
2023-01-12T18:50:29.020Z,70.29
2023-01-12T18:53:16.556Z,69.70
2023-01-12T18:55:45.093Z,70.59
2023-01-12T18:58:13.396Z,70.34
2023-01-12T19:00:43.099Z,70.11
2023-01-12T19:03:12.124Z,69.92
2023-01-12T19:05:52.419Z,71.00
2023-01-12T19:08:49.621Z,71.50
2023-01-12T19:11:18.117Z,70.99
2023-01-12T19:14:03.943Z,70.29
2023-01-12T19:16:51.040Z,70.60
2023-01-12T19:19:23.152Z,71.51
2023-01-12T19:22:08.987Z,71.70
2023-01-12T19:24:54.818Z,71.37
2023-01-12T19:27:40.833Z,71.63
2023-01-12T19:30:10.543Z,71.71
2023-01-12T19:32:40.505Z,71.42
2023-01-12T19:35:11.619Z,71.50
2023-01-12T19:37:42.635Z,71.73
2023-01-12T19:40:18.456Z,71.57
2023-01-12T19:43:04.371Z,71.70
2023-01-12T19:45:32.768Z,71.83
2023-01-12T19:48:03.719Z,71.61
2023-01-12T19:50:32.087Z,71.08
2023-01-12T19:53:00.472Z,71.40
2023-01-12T19:55:28.947Z,71.49
2023-01-12T19:57:58.405Z,71.75
2023-01-12T20:00:27.869Z,71.19
2023-01-12T20:02:57.103Z,71.18
2023-01-12T20:05:26.869Z,71.32
2023-01-12T20:07:55.535Z,70.92
2023-01-12T20:10:24.285Z,71.41
2023-01-12T20:12:52.667Z,71.46
2023-01-12T20:15:21.920Z,71.44
2023-01-12T20:17:51.112Z,71.72
2023-01-12T20:20:19.906Z,71.17
2023-01-12T20:22:51.850Z,71.57
2023-01-12T20:25:20.918Z,71.82
2023-01-12T20:27:50.300Z,71.92
2023-01-12T20:30:32.043Z,72.49
2023-01-12T20:33:05.011Z,72.74
2023-01-12T20:35:33.375Z,72.22
2023-01-12T20:38:06.798Z,72.31
2023-01-12T20:40:35.338Z,71.74
2023-01-12T20:43:03.680Z,71.83
2023-01-12T20:45:32.087Z,71.96
2023-01-12T20:48:00.390Z,72.24
2023-01-12T20:50:28.850Z,72.62
2023-01-12T20:52:57.161Z,72.55
2023-01-12T20:55:26.963Z,72.80
2023-01-12T20:57:55.384Z,73.03
2023-01-12T21:00:23.731Z,72.61
2023-01-12T21:02:52.060Z,72.99
2023-01-12T21:05:20.735Z,73.18
2023-01-12T21:07:52.054Z,73.53
2023-01-12T21:10:22.556Z,73.12
2023-01-12T21:12:52.317Z,73.28
2023-01-12T21:15:21.074Z,74.27
2023-01-12T21:17:49.428Z,73.29
2023-01-12T21:20:18.233Z,73.49
2023-01-12T21:22:46.565Z,73.93
2023-01-12T21:25:15.049Z,74.10
2023-01-12T21:27:43.392Z,73.90
2023-01-12T21:30:13.742Z,73.85
2023-01-12T21:32:43.590Z,73.63
2023-01-12T21:35:12.018Z,73.52
2023-01-12T21:37:41.461Z,73.02
2023-01-12T21:40:11.263Z,73.20
2023-01-12T21:42:57.377Z,74.04
2023-01-12T21:45:27.191Z,73.85
2023-01-12T21:47:56.082Z,73.36
2023-01-12T21:50:24.703Z,73.02
2023-01-12T21:52:53.034Z,73.70
2023-01-12T21:55:21.389Z,73.08
2023-01-12T21:57:49.802Z,73.49
2023-01-12T22:00:19.715Z,73.59
2023-01-12T22:02:51.217Z,73.78
2023-01-12T22:05:21.515Z,72.97
2023-01-12T22:07:50.263Z,73.76
2023-01-12T22:10:30.232Z,73.78
2023-01-12T22:13:00.956Z,73.36
2023-01-12T22:15:31.079Z,74.40
2023-01-12T22:18:01.372Z,73.63
2023-01-12T22:20:29.955Z,73.98
2023-01-12T22:22:58.301Z,73.17
2023-01-12T22:25:27.438Z,73.30
2023-01-12T22:27:57.343Z,73.22
2023-01-12T22:30:26.302Z,73.06
2023-01-12T22:32:56.128Z,73.21
2023-01-12T22:35:26.223Z,73.97
2023-01-12T22:37:55.929Z,74.01
2023-01-12T22:40:24.292Z,73.77
2023-01-12T22:43:10.212Z,74.03
2023-01-12T22:45:38.553Z,73.59
2023-01-12T22:48:07.437Z,73.82
2023-01-12T22:50:38.030Z,73.31
2023-01-12T22:53:06.440Z,74.11
2023-01-12T22:55:34.694Z,73.35
2023-01-12T22:58:03.165Z,74.01
2023-01-12T23:00:31.473Z,73.61
2023-01-12T23:03:03.175Z,74.21
2023-01-12T23:05:35.309Z,73.66
2023-01-12T23:08:06.707Z,73.49
2023-01-12T23:10:35.386Z,73.46
2023-01-12T23:13:15.763Z,74.29
2023-01-12T23:15:47.722Z,73.62
2023-01-12T23:18:18.673Z,74.52
2023-01-12T23:20:47.135Z,74.65
2023-01-12T23:23:18.800Z,74.53
2023-01-12T23:25:47.805Z,74.46
2023-01-12T23:28:17.032Z,74.27
2023-01-12T23:30:46.080Z,74.46
2023-01-12T23:33:14.319Z,74.87
2023-01-12T23:35:43.809Z,74.70
2023-01-12T23:38:17.342Z,74.22
2023-01-12T23:40:45.724Z,74.60
2023-01-12T23:43:14.062Z,74.23
2023-01-12T23:45:42.482Z,74.36
2023-01-12T23:48:10.811Z,74.51
2023-01-12T23:50:39.199Z,74.61
2023-01-12T23:53:07.460Z,74.86
2023-01-12T23:55:39.275Z,74.48
2023-01-12T23:58:08.260Z,74.84
